createdAt,value
2019-01-11T00:00:29.265Z,3
2019-01-11T00:01:29.252Z,3
2019-01-11T00:02:29.288Z,3
2019-01-11T00:03:29.239Z,3
2019-01-11T00:04:29.279Z,3
2019-01-11T00:05:29.218Z,3
2019-01-11T00:06:29.217Z,3
2019-01-11T00:07:29.252Z,3
2019-01-11T00:08:29.332Z,3
2019-01-11T00:09:29.239Z,3
2019-01-11T00:10:29.260Z,3
2019-01-11T00:11:29.308Z,3
2019-01-11T00:12:29.223Z,3
2019-01-11T00:13:29.278Z,3
2019-01-11T00:14:29.224Z,3
2019-01-11T00:15:29.221Z,3
2019-01-11T00:16:29.251Z,3
2019-01-11T00:17:29.268Z,3
2019-01-11T00:18:29.268Z,3
2019-01-11T00:19:29.280Z,3
2019-01-11T00:20:29.284Z,3
2019-01-11T00:21:29.275Z,3
2019-01-11T00:22:29.239Z,3
2019-01-11T00:23:29.249Z,3
2019-01-11T00:24:29.267Z,3
2019-01-11T00:25:29.354Z,3
2019-01-11T00:26:29.231Z,3
2019-01-11T00:27:29.280Z,3
2019-01-11T00:28:29.251Z,3
2019-01-11T00:29:29.305Z,3
2019-01-11T00:30:29.273Z,3
2019-01-11T00:31:29.261Z,3
2019-01-11T00:32:29.267Z,3
2019-01-11T00:33:29.287Z,3
2019-01-11T00:34:29.223Z,3
2019-01-11T00:35:29.269Z,3
2019-01-11T00:36:29.266Z,3
2019-01-11T00:37:29.314Z,3
2019-01-11T00:38:29.249Z,3
2019-01-11T00:39:29.245Z,3
2019-01-11T00:40:29.296Z,3
2019-01-11T00:41:29.375Z,3
2019-01-11T00:42:29.327Z,3
2019-01-11T00:43:29.279Z,3
2019-01-11T00:44:29.272Z,3
2019-01-11T00:45:29.232Z,3
2019-01-11T00:46:29.286Z,3
2019-01-11T00:47:29.236Z,3
2019-01-11T00:48:29.252Z,3
2019-01-11T00:49:29.222Z,3
2019-01-11T00:50:29.222Z,3
2019-01-11T00:51:29.240Z,3
2019-01-11T00:52:29.216Z,3
2019-01-11T00:53:29.264Z,3
2019-01-11T00:54:29.327Z,3
2019-01-11T00:55:29.276Z,3
2019-01-11T00:56:29.266Z,3
2019-01-11T00:57:29.273Z,3
2019-01-11T00:58:29.217Z,3
2019-01-11T00:59:29.240Z,3
2019-01-11T01:00:29.256Z,3
2019-01-11T01:01:29.566Z,3
2019-01-11T01:02:29.389Z,3
2019-01-11T01:03:29.425Z,3
2019-01-11T01:04:29.384Z,3
2019-01-11T01:05:29.295Z,3
2019-01-11T01:06:29.217Z,3
2019-01-11T01:07:29.234Z,3
2019-01-11T01:08:30.592Z,3
2019-01-11T01:09:29.248Z,3
2019-01-11T01:11:30.355Z,2
2019-01-11T01:13:29.232Z,3
2019-01-11T01:14:29.298Z,3
2019-01-11T01:15:29.274Z,3
2019-01-11T01:16:29.312Z,3
2019-01-11T01:17:29.235Z,3
2019-01-11T01:18:29.224Z,3
2019-01-11T01:19:29.274Z,3
2019-01-11T01:20:29.238Z,3
2019-01-11T01:21:29.244Z,3
2019-01-11T01:22:29.245Z,3
2019-01-11T01:23:29.221Z,3
2019-01-11T01:24:29.328Z,3
2019-01-11T01:25:29.216Z,3
2019-01-11T01:26:29.219Z,3
2019-01-11T01:27:29.347Z,3
2019-01-11T01:28:29.217Z,3
2019-01-11T01:29:29.273Z,3
2019-01-11T01:30:29.300Z,3
2019-01-11T01:31:29.281Z,3
2019-01-11T01:32:29.244Z,3
2019-01-11T01:33:29.251Z,3
2019-01-11T01:34:29.324Z,3
2019-01-11T01:35:29.285Z,3
2019-01-11T01:36:29.278Z,3
2019-01-11T01:37:29.244Z,3
2019-01-11T01:38:29.230Z,3
2019-01-11T01:39:29.428Z,3
2019-01-11T01:40:29.235Z,3
2019-01-11T01:41:29.275Z,3
2019-01-11T01:42:29.351Z,3
2019-01-11T01:43:29.298Z,3
2019-01-11T01:44:29.354Z,3
2019-01-11T01:45:29.341Z,3
2019-01-11T01:46:29.274Z,3
2019-01-11T01:47:29.362Z,3
2019-01-11T01:48:29.260Z,3
2019-01-11T01:49:29.226Z,3
2019-01-11T01:50:29.235Z,3
2019-01-11T01:51:29.220Z,3
2019-01-11T01:52:29.237Z,3
2019-01-11T01:53:29.276Z,3
2019-01-11T01:54:29.277Z,3
2019-01-11T01:55:29.250Z,3
2019-01-11T01:56:29.267Z,3
2019-01-11T01:57:29.280Z,3
2019-01-11T01:58:29.222Z,3
2019-01-11T01:59:29.319Z,3
2019-01-11T02:00:29.279Z,3
2019-01-11T02:01:29.247Z,3
2019-01-11T02:02:29.232Z,3
2019-01-11T02:03:29.319Z,3
2019-01-11T02:04:29.279Z,3
2019-01-11T02:05:29.259Z,3
2019-01-11T02:06:29.215Z,3
2019-01-11T02:07:29.248Z,3
2019-01-11T02:08:29.301Z,3
2019-01-11T02:09:29.287Z,3
2019-01-11T02:10:29.339Z,3
2019-01-11T02:11:29.227Z,3
2019-01-11T02:12:29.232Z,3
2019-01-11T02:13:29.327Z,3
2019-01-11T02:14:29.268Z,3
2019-01-11T02:15:29.335Z,3
2019-01-11T02:16:29.294Z,3
2019-01-11T02:17:29.257Z,3
2019-01-11T02:18:29.224Z,3
2019-01-11T02:19:32.932Z,3
2019-01-11T02:20:29.215Z,3
2019-01-11T02:21:29.289Z,3
2019-01-11T02:22:29.322Z,3
2019-01-11T02:23:29.440Z,3
2019-01-11T02:24:29.249Z,3
2019-01-11T02:25:29.226Z,3
2019-01-11T02:26:29.320Z,3
2019-01-11T02:27:29.271Z,3
2019-01-11T02:28:29.257Z,3
2019-01-11T02:29:29.242Z,3
2019-01-11T02:30:29.302Z,3
2019-01-11T02:31:29.297Z,3
2019-01-11T02:32:29.276Z,3
2019-01-11T02:33:29.290Z,3
2019-01-11T02:34:29.275Z,3
2019-01-11T02:35:29.238Z,3
2019-01-11T02:36:29.242Z,3
2019-01-11T02:37:29.276Z,3
2019-01-11T02:38:29.213Z,3
2019-01-11T02:39:29.298Z,3
2019-01-11T02:40:29.311Z,3
2019-01-11T02:41:29.342Z,3
2019-01-11T02:42:29.260Z,3
2019-01-11T02:43:29.344Z,3
2019-01-11T02:44:29.249Z,3
2019-01-11T02:45:29.282Z,3
2019-01-11T02:46:29.266Z,3
2019-01-11T02:47:29.225Z,3
2019-01-11T02:48:29.462Z,3
2019-01-11T02:49:29.241Z,3
2019-01-11T02:50:29.220Z,3
2019-01-11T02:51:29.297Z,3
2019-01-11T02:52:29.232Z,3
2019-01-11T02:53:29.356Z,3
2019-01-11T02:54:29.269Z,3
2019-01-11T02:55:29.399Z,3
2019-01-11T02:56:29.258Z,3
2019-01-11T02:57:29.212Z,3
2019-01-11T02:58:29.372Z,3
2019-01-11T02:59:29.265Z,3
2019-01-11T03:00:29.211Z,3
2019-01-11T03:01:29.288Z,3
2019-01-11T03:02:29.267Z,3
2019-01-11T03:03:29.251Z,3
2019-01-11T03:04:29.298Z,3
2019-01-11T03:05:29.410Z,3
2019-01-11T03:06:29.293Z,3
2019-01-11T03:07:29.295Z,3
2019-01-11T03:08:29.274Z,3
2019-01-11T03:09:29.267Z,3
2019-01-11T03:10:29.216Z,3
2019-01-11T03:11:29.271Z,3
2019-01-11T03:12:29.273Z,3
2019-01-11T03:13:29.228Z,3
2019-01-11T03:14:29.286Z,3
2019-01-11T03:15:29.408Z,3
2019-01-11T03:16:29.282Z,3
2019-01-11T03:17:29.218Z,3
2019-01-11T03:18:29.261Z,3
2019-01-11T03:19:29.297Z,3
2019-01-11T03:20:29.212Z,3
2019-01-11T03:21:29.226Z,3
2019-01-11T03:22:29.248Z,3
2019-01-11T03:23:29.289Z,3
2019-01-11T03:24:29.516Z,3
2019-01-11T03:25:29.250Z,3
2019-01-11T03:26:29.313Z,3
2019-01-11T03:27:29.281Z,3
2019-01-11T03:28:29.314Z,3
2019-01-11T03:29:29.227Z,3
2019-01-11T03:30:29.227Z,3
2019-01-11T03:32:29.346Z,3
2019-01-11T03:33:29.312Z,3
2019-01-11T03:34:29.254Z,3
2019-01-11T03:35:29.212Z,3
2019-01-11T03:36:29.215Z,3
2019-01-11T03:37:29.316Z,3
2019-01-11T03:38:29.267Z,3
2019-01-11T03:39:29.273Z,3
2019-01-11T03:40:29.251Z,3
2019-01-11T03:41:29.236Z,3
2019-01-11T03:42:29.302Z,3
2019-01-11T03:43:29.225Z,3
2019-01-11T03:44:29.244Z,3
2019-01-11T03:45:30.103Z,3
2019-01-11T03:46:29.242Z,3
2019-01-11T03:47:29.305Z,3
2019-01-11T03:48:29.226Z,3
2019-01-11T03:49:29.233Z,3
2019-01-11T03:50:29.219Z,3
2019-01-11T03:51:29.223Z,3
2019-01-11T03:52:29.303Z,3
2019-01-11T03:53:29.238Z,3
2019-01-11T03:54:29.325Z,3
2019-01-11T03:55:29.242Z,3
2019-01-11T03:56:29.275Z,3
2019-01-11T03:57:29.218Z,4
2019-01-11T03:58:29.239Z,4
2019-01-11T03:59:29.243Z,4
2019-01-11T04:00:29.197Z,3
2019-01-11T04:01:29.198Z,3
2019-01-11T04:02:29.195Z,3
2019-01-11T04:03:29.200Z,3
2019-01-11T04:04:29.256Z,3
2019-01-11T04:05:29.199Z,3
2019-01-11T04:06:29.264Z,3
2019-01-11T04:07:29.207Z,3
2019-01-11T04:08:29.229Z,3
2019-01-11T04:09:29.257Z,3
2019-01-11T04:10:29.261Z,3
2019-01-11T04:11:29.193Z,3
2019-01-11T04:12:29.213Z,3
2019-01-11T04:13:30.664Z,3
2019-01-11T04:14:29.280Z,3
2019-01-11T04:15:29.281Z,3
2019-01-11T04:16:29.433Z,3
2019-01-11T04:17:29.191Z,3
2019-01-11T04:18:29.326Z,3
2019-01-11T04:19:29.272Z,3
2019-01-11T04:20:29.275Z,3
2019-01-11T04:21:29.232Z,3
2019-01-11T04:22:29.752Z,3
2019-01-11T04:23:29.299Z,3
2019-01-11T04:24:29.201Z,3
2019-01-11T04:25:29.202Z,3
2019-01-11T04:26:29.197Z,3
2019-01-11T04:27:29.269Z,3
2019-01-11T04:28:29.234Z,3
2019-01-11T04:29:29.257Z,3
2019-01-11T04:30:29.264Z,3
2019-01-11T04:31:29.212Z,3
2019-01-11T04:32:29.350Z,3
2019-01-11T04:33:29.245Z,3
2019-01-11T04:34:30.484Z,3
2019-01-11T04:35:29.215Z,3
2019-01-11T04:36:29.263Z,3
2019-01-11T04:37:29.251Z,3
2019-01-11T04:38:29.263Z,3
2019-01-11T04:39:29.213Z,3
2019-01-11T04:40:34.088Z,3
2019-01-11T04:41:29.332Z,3
2019-01-11T04:42:29.276Z,3
2019-01-11T04:43:29.302Z,3
2019-01-11T04:44:29.234Z,3
2019-01-11T04:45:29.205Z,3
2019-01-11T04:46:29.220Z,3
2019-01-11T04:47:29.315Z,3
2019-01-11T04:48:29.209Z,3
2019-01-11T04:49:29.208Z,3
2019-01-11T04:50:29.216Z,3
2019-01-11T04:51:29.244Z,3
2019-01-11T04:52:29.276Z,3
2019-01-11T04:53:29.236Z,3
2019-01-11T04:54:29.274Z,3
2019-01-11T04:55:29.330Z,3
2019-01-11T04:56:29.277Z,3
2019-01-11T04:57:29.221Z,3
2019-01-11T04:58:29.204Z,3
2019-01-11T04:59:29.224Z,3
2019-01-11T05:00:29.304Z,3
2019-01-11T05:01:29.202Z,3
2019-01-11T05:02:29.203Z,4
2019-01-11T05:03:29.207Z,4
2019-01-11T05:04:29.245Z,4
2019-01-11T05:05:29.247Z,4
2019-01-11T05:06:29.339Z,4
2019-01-11T05:07:29.265Z,4
2019-01-11T05:08:29.241Z,4
2019-01-11T05:09:29.238Z,4
2019-01-11T05:10:29.198Z,4
2019-01-11T05:11:29.250Z,4
2019-01-11T05:12:29.252Z,4
2019-01-11T05:13:29.287Z,4
2019-01-11T05:14:29.220Z,4
2019-01-11T05:15:29.210Z,4
2019-01-11T05:16:29.257Z,4
2019-01-11T05:17:29.269Z,4
2019-01-11T05:18:29.253Z,4
2019-01-11T05:19:29.340Z,4
2019-01-11T05:20:29.289Z,4
2019-01-11T05:21:29.253Z,4
2019-01-11T05:22:29.223Z,4
2019-01-11T05:23:29.224Z,4
2019-01-11T05:24:29.196Z,4
2019-01-11T05:25:29.204Z,4
2019-01-11T05:26:29.278Z,4
2019-01-11T05:27:29.204Z,4
2019-01-11T05:28:29.224Z,4
2019-01-11T05:29:29.248Z,4
2019-01-11T05:30:29.268Z,4
2019-01-11T05:31:29.275Z,4
2019-01-11T05:32:29.226Z,4
2019-01-11T05:33:29.268Z,4
2019-01-11T05:34:29.251Z,4
2019-01-11T05:35:29.288Z,4
2019-01-11T05:36:29.215Z,4
2019-01-11T05:37:29.223Z,4
2019-01-11T05:38:29.202Z,4
2019-01-11T05:39:29.263Z,4
2019-01-11T05:40:29.269Z,4
2019-01-11T05:41:29.258Z,4
2019-01-11T05:42:29.207Z,4
2019-01-11T05:43:29.284Z,4
2019-01-11T05:44:29.258Z,4
2019-01-11T05:45:29.294Z,4
2019-01-11T05:46:29.245Z,4
2019-01-11T05:47:29.221Z,4
2019-01-11T05:48:29.211Z,5
2019-01-11T05:49:29.359Z,5
2019-01-11T05:52:29.201Z,4
2019-01-11T05:53:29.205Z,4
2019-01-11T05:54:29.254Z,4
2019-01-11T05:55:29.203Z,4
2019-01-11T05:56:29.304Z,4
2019-01-11T05:57:29.212Z,4
2019-01-11T05:58:29.238Z,4
2019-01-11T05:59:29.341Z,4
2019-01-11T06:00:29.269Z,4
2019-01-11T06:01:29.214Z,4
2019-01-11T06:02:29.208Z,4
2019-01-11T06:03:29.272Z,4
2019-01-11T06:04:29.329Z,4
2019-01-11T06:05:29.235Z,4
2019-01-11T06:06:29.200Z,4
2019-01-11T06:07:29.227Z,4
2019-01-11T06:08:29.254Z,4
2019-01-11T06:09:29.225Z,4
2019-01-11T06:10:29.246Z,4
2019-01-11T06:11:29.272Z,4
2019-01-11T06:12:29.194Z,4
2019-01-11T06:13:29.244Z,4
2019-01-11T06:14:29.259Z,4
2019-01-11T06:15:29.292Z,4
2019-01-11T06:16:29.316Z,4
2019-01-11T06:17:29.213Z,4
2019-01-11T06:18:29.202Z,4
2019-01-11T06:19:29.221Z,4
2019-01-11T06:20:30.418Z,4
2019-01-11T06:21:29.308Z,4
2019-01-11T06:22:29.386Z,5
2019-01-11T06:23:29.324Z,5
2019-01-11T06:24:29.239Z,4
2019-01-11T06:25:29.225Z,5
2019-01-11T06:26:29.230Z,4
2019-01-11T06:27:29.224Z,5
2019-01-11T06:28:29.221Z,4
2019-01-11T06:29:29.257Z,4
2019-01-11T06:30:29.228Z,4
2019-01-11T06:31:29.197Z,4
2019-01-11T06:32:29.264Z,4
2019-01-11T06:33:29.240Z,4
2019-01-11T06:34:29.291Z,4
2019-01-11T06:35:29.296Z,4
2019-01-11T06:36:29.198Z,5
2019-01-11T06:37:29.273Z,5
2019-01-11T06:38:29.271Z,5
2019-01-11T06:39:29.247Z,5
2019-01-11T06:40:29.198Z,5
2019-01-11T06:41:29.246Z,4
2019-01-11T06:42:29.236Z,5
2019-01-11T06:43:29.226Z,4
2019-01-11T06:44:29.251Z,4
2019-01-11T06:45:29.269Z,4
2019-01-11T06:46:29.325Z,4
2019-01-11T06:47:29.232Z,5
2019-01-11T06:48:29.256Z,7
2019-01-11T06:49:29.298Z,7
2019-01-11T06:50:29.194Z,7
2019-01-11T06:51:29.275Z,4
2019-01-11T06:52:29.193Z,4
2019-01-11T06:53:29.205Z,4
2019-01-11T06:54:29.291Z,6
2019-01-11T06:55:29.452Z,7
2019-01-11T06:56:29.395Z,7
2019-01-11T06:57:29.211Z,7
2019-01-11T06:58:29.281Z,6
2019-01-11T06:59:29.399Z,6
2019-01-11T07:00:29.250Z,7
2019-01-11T07:01:29.208Z,4
2019-01-11T07:02:29.191Z,4
2019-01-11T07:03:29.267Z,4
2019-01-11T07:04:29.269Z,4
2019-01-11T07:05:29.200Z,4
2019-01-11T07:06:29.196Z,4
2019-01-11T07:07:29.197Z,4
2019-01-11T07:08:29.208Z,5
2019-01-11T07:09:29.249Z,5
2019-01-11T07:10:29.199Z,5
2019-01-11T07:11:29.199Z,5
2019-01-11T07:12:29.198Z,5
2019-01-11T07:13:29.240Z,5
2019-01-11T07:14:29.202Z,4
2019-01-11T07:15:29.798Z,8
2019-01-11T07:16:29.854Z,8
2019-01-11T07:17:29.414Z,7
2019-01-11T07:18:29.727Z,7
2019-01-11T07:19:29.177Z,5
2019-01-11T07:20:29.137Z,5
2019-01-11T07:21:29.174Z,5
2019-01-11T07:22:29.256Z,6
2019-01-11T07:23:29.162Z,5
2019-01-11T07:24:29.186Z,5
2019-01-11T07:25:29.165Z,5
2019-01-11T07:26:29.193Z,5
2019-01-11T07:27:29.202Z,5
2019-01-11T07:28:29.148Z,5
2019-01-11T07:29:29.199Z,5
2019-01-11T07:30:29.146Z,5
2019-01-11T07:31:29.179Z,4
2019-01-11T07:32:29.195Z,4
2019-01-11T07:33:29.271Z,4
2019-01-11T07:34:29.310Z,4
2019-01-11T07:35:29.311Z,4
2019-01-11T07:36:29.241Z,4
2019-01-11T07:37:29.244Z,4
2019-01-11T07:38:29.206Z,4
2019-01-11T07:39:29.257Z,4
2019-01-11T07:40:29.268Z,4
2019-01-11T07:41:29.212Z,4
2019-01-11T07:42:29.232Z,4
2019-01-11T07:43:29.239Z,4
2019-01-11T07:44:29.205Z,4
2019-01-11T07:45:29.267Z,4
2019-01-11T07:46:29.261Z,4
2019-01-11T07:47:29.211Z,4
2019-01-11T07:48:29.273Z,4
2019-01-11T07:49:29.260Z,4
2019-01-11T07:50:29.225Z,4
2019-01-11T07:51:29.274Z,4
2019-01-11T07:52:29.270Z,4
2019-01-11T07:53:29.253Z,4
2019-01-11T07:54:29.837Z,5
2019-01-11T07:55:29.613Z,5
2019-01-11T07:56:29.353Z,5
2019-01-11T07:57:29.236Z,5
2019-01-11T07:58:29.549Z,7
2019-01-11T07:59:29.646Z,6
2019-01-11T08:00:29.555Z,7
2019-01-11T08:01:29.247Z,7
2019-01-11T08:02:29.220Z,7
2019-01-11T08:03:29.547Z,7
2019-01-11T08:04:29.738Z,7
2019-01-11T08:05:29.378Z,7
2019-01-11T08:06:29.235Z,6
2019-01-11T08:07:29.312Z,6
2019-01-11T08:08:30.282Z,6
2019-01-11T08:09:30.222Z,6
2019-01-11T08:10:29.230Z,5
2019-01-11T08:11:29.304Z,5
2019-01-11T08:12:29.181Z,5
2019-01-11T08:17:29.506Z,5
2019-01-11T08:19:29.264Z,5
2019-01-11T08:20:29.164Z,4
2019-01-11T08:21:29.238Z,4
2019-01-11T08:22:29.512Z,4
2019-01-11T08:23:29.258Z,5
2019-01-11T08:24:29.367Z,5
2019-01-11T08:25:29.251Z,6
2019-01-11T08:26:29.265Z,6
2019-01-11T08:27:29.178Z,6
2019-01-11T08:28:29.182Z,6
2019-01-11T08:29:30.842Z,7
2019-01-11T08:30:29.519Z,7
2019-01-11T08:31:34.693Z,6
2019-01-11T08:32:29.222Z,6
2019-01-11T08:33:29.305Z,6
2019-01-11T08:34:29.281Z,6
2019-01-11T08:35:29.303Z,6
2019-01-11T08:36:29.277Z,6
2019-01-11T08:37:29.277Z,5
2019-01-11T08:38:29.269Z,5
2019-01-11T08:40:29.547Z,5
2019-01-11T08:41:29.247Z,5
2019-01-11T08:42:29.234Z,5
2019-01-11T08:43:29.237Z,5
2019-01-11T08:44:29.294Z,5
2019-01-11T08:45:29.270Z,5
2019-01-11T08:46:30.487Z,6
2019-01-11T08:47:29.193Z,6
2019-01-11T08:48:29.969Z,6
2019-01-11T08:49:29.366Z,7
2019-01-11T08:50:29.699Z,8
2019-01-11T08:51:29.268Z,7
2019-01-11T08:52:29.305Z,8
2019-01-11T08:53:30.182Z,7
2019-01-11T08:54:29.262Z,7
2019-01-11T08:55:29.221Z,7
2019-01-11T08:56:29.269Z,6
2019-01-11T08:57:29.290Z,6
2019-01-11T08:58:29.224Z,6
2019-01-11T08:59:30.050Z,6
2019-01-11T09:00:29.213Z,6
2019-01-11T09:01:29.944Z,6
2019-01-11T09:02:30.016Z,7
2019-01-11T09:03:29.418Z,6
2019-01-11T09:04:29.406Z,6
2019-01-11T09:05:29.444Z,6
2019-01-11T09:06:29.272Z,6
2019-01-11T09:07:29.894Z,6
2019-01-11T09:08:29.291Z,6
2019-01-11T09:09:29.345Z,6
2019-01-11T09:10:29.366Z,6
2019-01-11T09:11:29.903Z,6
2019-01-11T09:12:29.282Z,7
2019-01-11T09:13:30.437Z,7
2019-01-11T09:14:29.709Z,7
2019-01-11T09:15:29.540Z,5
2019-01-11T09:16:29.211Z,6
2019-01-11T09:17:29.968Z,6
2019-01-11T09:18:29.278Z,5
2019-01-11T09:19:29.212Z,5
2019-01-11T09:20:29.222Z,5
2019-01-11T09:21:29.209Z,5
2019-01-11T09:22:29.241Z,5
2019-01-11T09:23:29.287Z,5
2019-01-11T09:24:29.217Z,5
2019-01-11T09:25:29.221Z,5
2019-01-11T09:26:29.351Z,5
2019-01-11T09:27:29.240Z,5
2019-01-11T09:28:29.316Z,6
2019-01-11T09:29:29.261Z,6
2019-01-11T09:30:29.241Z,6
2019-01-11T09:31:29.267Z,5
2019-01-11T09:32:29.237Z,5
2019-01-11T09:33:29.315Z,5
2019-01-11T09:34:29.219Z,5
2019-01-11T09:35:29.213Z,5
2019-01-11T09:36:29.230Z,5
2019-01-11T09:37:29.323Z,5
2019-01-11T09:38:29.209Z,5
2019-01-11T09:39:29.221Z,5
2019-01-11T09:40:29.254Z,5
2019-01-11T09:41:29.316Z,5
2019-01-11T09:42:29.261Z,5
2019-01-11T09:43:29.276Z,5
2019-01-11T09:44:29.227Z,5
2019-01-11T09:45:29.207Z,5
2019-01-11T09:46:29.215Z,5
2019-01-11T09:47:29.306Z,5
2019-01-11T09:48:29.276Z,5
2019-01-11T09:49:29.212Z,5
2019-01-11T09:50:29.211Z,5
2019-01-11T09:51:29.304Z,5
2019-01-11T09:52:29.264Z,5
2019-01-11T09:53:29.470Z,6
2019-01-11T09:54:29.276Z,6
2019-01-11T09:55:29.278Z,7
2019-01-11T09:56:29.306Z,6
2019-01-11T09:57:29.235Z,5
2019-01-11T09:58:29.258Z,5
2019-01-11T09:59:34.913Z,5
2019-01-11T10:00:29.269Z,5
2019-01-11T10:01:29.386Z,5
2019-01-11T10:02:29.395Z,5
2019-01-11T10:03:29.318Z,5
2019-01-11T10:04:29.366Z,5
2019-01-11T10:05:29.340Z,5
2019-01-11T10:06:29.285Z,5
2019-01-11T10:07:29.355Z,5
2019-01-11T10:08:29.279Z,6
2019-01-11T10:09:29.220Z,6
2019-01-11T10:10:29.278Z,5
2019-01-11T10:11:29.255Z,5
2019-01-11T10:12:29.244Z,5
2019-01-11T10:13:29.235Z,5
2019-01-11T10:14:29.318Z,5
2019-01-11T10:15:29.254Z,5
2019-01-11T10:16:29.275Z,5
2019-01-11T10:17:29.266Z,5
2019-01-11T10:18:29.229Z,5
2019-01-11T10:19:29.256Z,5
2019-01-11T10:20:29.261Z,5
2019-01-11T10:21:29.265Z,5
2019-01-11T10:22:29.283Z,5
2019-01-11T10:23:29.241Z,5
2019-01-11T10:24:29.305Z,5
2019-01-11T10:25:29.329Z,5
2019-01-11T10:26:29.260Z,5
2019-01-11T10:27:29.382Z,5
2019-01-11T10:28:29.351Z,6
2019-01-11T10:29:29.246Z,6
2019-01-11T10:30:29.224Z,6
2019-01-11T10:31:29.235Z,6
2019-01-11T10:32:29.600Z,7
2019-01-11T10:33:29.231Z,6
2019-01-11T10:34:29.230Z,6
2019-01-11T10:35:29.317Z,5
2019-01-11T10:36:29.314Z,5
2019-01-11T10:37:29.303Z,6
2019-01-11T10:38:29.287Z,5
2019-01-11T10:39:29.236Z,5
2019-01-11T10:40:29.306Z,5
2019-01-11T10:41:29.345Z,6
2019-01-11T10:42:29.267Z,6
2019-01-11T10:43:29.305Z,6
2019-01-11T10:44:29.349Z,6
2019-01-11T10:45:29.229Z,6
2019-01-11T10:46:29.987Z,6
2019-01-11T10:47:29.443Z,6
2019-01-11T10:48:29.705Z,6
2019-01-11T10:50:29.244Z,6
2019-01-11T10:51:29.217Z,5
2019-01-11T10:52:29.207Z,5
2019-01-11T10:53:29.217Z,5
2019-01-11T10:54:29.222Z,5
2019-01-11T10:55:29.454Z,5
2019-01-11T10:56:29.315Z,5
2019-01-11T10:57:29.293Z,5
2019-01-11T10:58:29.212Z,6
2019-01-11T10:59:29.211Z,5
2019-01-11T11:00:29.323Z,5
2019-01-11T11:01:29.321Z,5
2019-01-11T11:02:29.223Z,5
2019-01-11T11:03:29.307Z,5
2019-01-11T11:04:29.289Z,5
2019-01-11T11:05:29.244Z,5
2019-01-11T11:06:29.342Z,5
2019-01-11T11:07:29.291Z,5
2019-01-11T11:08:29.279Z,6
2019-01-11T11:09:29.258Z,7
2019-01-11T11:10:29.262Z,7
2019-01-11T11:11:29.281Z,6
2019-01-11T11:12:29.222Z,6
2019-01-11T11:13:29.216Z,7
2019-01-11T11:14:29.285Z,7
2019-01-11T11:15:29.194Z,7
2019-01-11T11:16:32.871Z,6
2019-01-11T11:17:31.184Z,6
2019-01-11T11:18:29.225Z,6
2019-01-11T11:19:29.312Z,7
2019-01-11T11:20:29.474Z,7
2019-01-11T11:21:34.660Z,6
2019-01-11T11:22:29.224Z,6
2019-01-11T11:23:29.313Z,5
2019-01-11T11:24:29.336Z,5
2019-01-11T11:25:30.160Z,5
2019-01-11T11:26:29.361Z,5
2019-01-11T11:27:29.238Z,5
2019-01-11T11:28:29.257Z,5
2019-01-11T11:29:29.220Z,5
2019-01-11T11:30:29.277Z,5
2019-01-11T11:31:29.301Z,5
2019-01-11T11:32:29.306Z,5
2019-01-11T11:33:29.248Z,5
2019-01-11T11:34:29.263Z,5
2019-01-11T11:35:29.272Z,7
2019-01-11T11:36:29.262Z,6
2019-01-11T11:37:29.271Z,5
2019-01-11T11:38:29.438Z,5
2019-01-11T11:39:29.244Z,4
2019-01-11T11:40:29.270Z,4
2019-01-11T11:41:29.220Z,4
2019-01-11T11:42:29.303Z,5
2019-01-11T11:43:29.284Z,5
2019-01-11T11:44:29.512Z,6
2019-01-11T11:45:29.216Z,5
2019-01-11T11:46:29.307Z,5
2019-01-11T11:47:29.331Z,5
2019-01-11T11:48:29.246Z,5
2019-01-11T11:49:29.263Z,5
2019-01-11T11:50:29.288Z,4
2019-01-11T11:51:29.299Z,4
2019-01-11T11:52:29.323Z,5
2019-01-11T11:53:29.251Z,4
2019-01-11T11:54:29.321Z,5
2019-01-11T11:55:29.282Z,6
2019-01-11T11:56:29.787Z,7
2019-01-11T11:57:33.839Z,7
2019-01-11T11:58:30.313Z,8
2019-01-11T11:59:32.567Z,7
2019-01-11T12:00:30.502Z,7
2019-01-11T12:01:31.599Z,8
2019-01-11T12:02:29.573Z,9
2019-01-11T12:03:35.960Z,10
2019-01-11T12:04:37.165Z,9
2019-01-11T12:05:30.512Z,7
2019-01-11T12:06:29.259Z,4
2019-01-11T12:07:29.231Z,5
2019-01-11T12:08:29.465Z,6
2019-01-11T12:09:29.720Z,6
2019-01-11T12:10:29.298Z,6
2019-01-11T12:11:29.410Z,5
2019-01-11T12:12:29.404Z,5
2019-01-11T12:13:29.490Z,5
2019-01-11T12:14:29.430Z,5
2019-01-11T12:15:29.317Z,6
2019-01-11T12:16:29.350Z,5
2019-01-11T12:17:29.231Z,5
2019-01-11T12:18:29.288Z,5
2019-01-11T12:19:29.235Z,5
2019-01-11T12:20:29.243Z,5
2019-01-11T12:21:29.333Z,5
2019-01-11T12:22:29.252Z,5
2019-01-11T12:23:29.275Z,5
2019-01-11T12:24:29.264Z,8
2019-01-11T12:25:29.767Z,9
2019-01-11T12:26:29.265Z,8
2019-01-11T12:27:29.283Z,7
2019-01-11T12:28:29.277Z,7
2019-01-11T12:29:29.279Z,5
2019-01-11T12:30:29.243Z,5
2019-01-11T12:31:29.217Z,5
2019-01-11T12:32:29.234Z,5
2019-01-11T12:33:29.283Z,5
2019-01-11T12:34:29.210Z,6
2019-01-11T12:35:29.223Z,6
2019-01-11T12:36:29.219Z,6
2019-01-11T12:37:29.223Z,6
2019-01-11T12:38:29.306Z,6
2019-01-11T12:39:29.269Z,6
2019-01-11T12:40:29.255Z,6
2019-01-11T12:41:29.213Z,6
2019-01-11T12:42:29.292Z,6
2019-01-11T12:43:29.279Z,7
2019-01-11T12:44:29.226Z,6
2019-01-11T12:45:29.263Z,6
2019-01-11T12:46:29.271Z,6
2019-01-11T12:47:29.332Z,6
2019-01-11T12:48:29.213Z,6
2019-01-11T12:49:29.226Z,6
2019-01-11T12:50:29.283Z,5
2019-01-11T12:51:29.237Z,5
2019-01-11T12:52:29.225Z,5
2019-01-11T12:53:29.247Z,5
2019-01-11T12:54:29.613Z,5
2019-01-11T12:55:29.212Z,5
2019-01-11T12:56:29.228Z,5
2019-01-11T12:57:29.246Z,5
2019-01-11T12:58:29.241Z,5
2019-01-11T12:59:29.351Z,5
2019-01-11T13:00:29.330Z,5
2019-01-11T13:01:29.266Z,5
2019-01-11T13:02:29.227Z,5
2019-01-11T13:03:29.234Z,5
2019-01-11T13:04:29.297Z,5
2019-01-11T13:05:29.232Z,5
2019-01-11T13:06:29.269Z,5
2019-01-11T13:07:29.218Z,5
2019-01-11T13:08:29.242Z,6
2019-01-11T13:09:29.260Z,6
2019-01-11T13:10:29.244Z,6
2019-01-11T13:11:29.268Z,6
2019-01-11T13:12:29.207Z,6
2019-01-11T13:13:29.211Z,6
2019-01-11T13:14:29.280Z,5
2019-01-11T13:15:29.218Z,5
2019-01-11T13:16:29.255Z,5
2019-01-11T13:17:29.386Z,5
2019-01-11T13:18:29.258Z,5
2019-01-11T13:19:29.296Z,6
2019-01-11T13:20:29.284Z,7
2019-01-11T13:21:29.254Z,7
2019-01-11T13:22:29.211Z,7
2019-01-11T13:23:29.495Z,7
2019-01-11T13:24:29.327Z,7
2019-01-11T13:25:32.234Z,7
2019-01-11T13:26:29.287Z,7
2019-01-11T13:27:29.260Z,7
2019-01-11T13:28:29.266Z,7
2019-01-11T13:29:29.263Z,6
2019-01-11T13:32:29.250Z,6
2019-01-11T13:33:29.218Z,6
2019-01-11T13:34:29.344Z,6
2019-01-11T13:35:29.272Z,6
2019-01-11T13:36:29.243Z,6
2019-01-11T13:37:29.256Z,6
2019-01-11T13:38:29.250Z,7
2019-01-11T13:39:29.520Z,7
2019-01-11T13:40:29.261Z,6
2019-01-11T13:41:29.271Z,6
2019-01-11T13:42:29.227Z,6
2019-01-11T13:43:29.286Z,7
2019-01-11T13:44:29.225Z,7
2019-01-11T13:45:29.251Z,6
2019-01-11T13:46:29.240Z,6
2019-01-11T13:47:29.235Z,6
2019-01-11T13:48:30.134Z,7
2019-01-11T13:49:29.275Z,7
2019-01-11T13:50:29.279Z,8
2019-01-11T13:51:29.170Z,7
2019-01-11T13:52:29.227Z,7
2019-01-11T13:53:29.228Z,8
2019-01-11T13:54:29.767Z,8
2019-01-11T13:55:29.234Z,7
2019-01-11T13:56:29.227Z,8
2019-01-11T13:57:29.519Z,9
2019-01-11T13:58:29.359Z,8
2019-01-11T13:59:29.907Z,8
2019-01-11T14:00:29.184Z,5
2019-01-11T14:01:29.173Z,5
2019-01-11T14:02:29.329Z,5
2019-01-11T14:03:29.222Z,5
2019-01-11T14:04:29.167Z,6
2019-01-11T14:05:29.199Z,5
2019-01-11T14:06:29.224Z,4
2019-01-11T14:07:29.221Z,4
2019-01-11T14:08:29.288Z,4
2019-01-11T14:09:29.237Z,5
2019-01-11T14:10:29.214Z,4
2019-01-11T14:11:29.220Z,4
2019-01-11T14:12:29.336Z,5
2019-01-11T14:13:29.309Z,4
2019-01-11T14:14:29.382Z,4
2019-01-11T14:15:29.277Z,4
2019-01-11T14:16:29.214Z,4
2019-01-11T14:17:29.227Z,5
2019-01-11T14:18:29.265Z,4
2019-01-11T14:19:29.244Z,4
2019-01-11T14:20:29.385Z,4
2019-01-11T14:21:29.210Z,4
2019-01-11T14:22:29.274Z,4
2019-01-11T14:23:29.274Z,4
2019-01-11T14:24:29.210Z,4
2019-01-11T14:25:29.272Z,4
2019-01-11T14:26:29.240Z,4
2019-01-11T14:27:29.353Z,4
2019-01-11T14:28:29.213Z,4
2019-01-11T14:29:29.322Z,4
2019-01-11T14:30:29.213Z,4
2019-01-11T14:31:29.263Z,4
2019-01-11T14:32:29.247Z,4
2019-01-11T14:33:29.225Z,4
2019-01-11T14:34:29.264Z,4
2019-01-11T14:35:29.233Z,4
2019-01-11T14:36:29.294Z,5
2019-01-11T14:37:32.397Z,5
2019-01-11T14:38:29.296Z,5
2019-01-11T14:39:29.290Z,5
2019-01-11T14:40:29.206Z,5
2019-01-11T14:41:29.331Z,4
2019-01-11T14:42:29.212Z,4
2019-01-11T14:43:29.216Z,4
2019-01-11T14:44:29.400Z,5
2019-01-11T14:45:29.267Z,4
2019-01-11T14:46:29.252Z,4
2019-01-11T14:47:29.281Z,4
2019-01-11T14:48:29.213Z,4
2019-01-11T14:49:29.224Z,4
2019-01-11T14:50:29.212Z,4
2019-01-11T14:51:29.205Z,4
2019-01-11T14:52:29.384Z,5
2019-01-11T14:53:29.258Z,4
2019-01-11T14:54:29.252Z,4
2019-01-11T14:55:29.206Z,4
2019-01-11T14:56:29.672Z,4
2019-01-11T14:57:29.451Z,5
2019-01-11T14:58:30.566Z,5
2019-01-11T14:59:29.223Z,4
2019-01-11T15:00:29.211Z,4
2019-01-11T15:01:29.261Z,4